createdAt,value
2019-02-15T00:00:22.795Z,0
2019-02-15T00:01:32.821Z,0
2019-02-15T00:02:42.743Z,0
2019-02-15T00:03:52.666Z,0
2019-02-15T00:05:02.792Z,0
2019-02-15T00:06:12.712Z,0
2019-02-15T00:07:22.783Z,0
2019-02-15T00:08:32.786Z,0
2019-02-15T00:09:42.727Z,0
2019-02-15T00:10:52.651Z,0
2019-02-15T00:12:02.575Z,0
2019-02-15T00:13:20.866Z,0
2019-02-15T00:14:30.786Z,0
2019-02-15T00:15:40.710Z,0
2019-02-15T00:16:50.629Z,0
2019-02-15T00:18:00.554Z,0
2019-02-15T00:19:10.326Z,0
2019-02-15T00:20:20.256Z,0
2019-02-15T00:21:30.181Z,0
2019-02-15T00:22:40.118Z,0
2019-02-15T00:23:50.049Z,0
2019-02-15T00:25:00.040Z,0
2019-02-15T00:26:09.960Z,0
2019-02-15T00:27:19.900Z,0
2019-02-15T00:28:29.821Z,0
2019-02-15T00:29:39.746Z,0
2019-02-15T00:30:49.664Z,0
2019-02-15T00:31:59.593Z,0
2019-02-15T00:33:09.515Z,0
2019-02-15T00:34:19.439Z,0
2019-02-15T00:35:29.409Z,0
2019-02-15T00:36:39.343Z,0
2019-02-15T00:37:49.266Z,0
2019-02-15T00:38:59.235Z,0
2019-02-15T00:40:09.158Z,0
2019-02-15T00:41:19.076Z,0
2019-02-15T00:42:29.097Z,0
2019-02-15T00:43:39.015Z,0
2019-02-15T00:44:48.949Z,0
2019-02-15T00:45:59.073Z,0
2019-02-15T00:47:09.009Z,0
2019-02-15T00:48:19.093Z,0
2019-02-15T00:49:29.012Z,0
2019-02-15T00:50:38.937Z,0
2019-02-15T00:51:48.861Z,0
2019-02-15T00:52:58.788Z,0
2019-02-15T00:54:08.861Z,0
2019-02-15T00:55:18.781Z,0
2019-02-15T00:56:28.711Z,0
2019-02-15T00:57:38.640Z,0
2019-02-15T00:58:48.558Z,0
2019-02-15T00:59:58.599Z,0
2019-02-15T01:01:08.527Z,0
2019-02-15T01:02:18.448Z,0
2019-02-15T01:03:28.129Z,0
2019-02-15T01:04:38.060Z,0
2019-02-15T01:05:47.989Z,0
2019-02-15T01:06:57.911Z,0
2019-02-15T01:08:07.833Z,0
2019-02-15T01:09:17.752Z,0
2019-02-15T01:10:27.673Z,0
2019-02-15T01:11:37.597Z,0
2019-02-15T01:12:47.519Z,0
2019-02-15T01:13:57.442Z,0
2019-02-15T01:15:07.446Z,0
2019-02-15T01:16:17.114Z,0
2019-02-15T01:17:27.102Z,0
2019-02-15T01:18:37.036Z,0
2019-02-15T01:19:46.960Z,0
2019-02-15T01:20:56.889Z,0
2019-02-15T01:22:06.811Z,0
2019-02-15T01:23:16.832Z,0
2019-02-15T01:24:26.757Z,0
2019-02-15T01:25:36.684Z,0
2019-02-15T01:26:46.662Z,0
2019-02-15T01:27:56.331Z,0
2019-02-15T01:29:06.362Z,0
2019-02-15T01:30:16.292Z,0
2019-02-15T01:31:26.211Z,0
2019-02-15T01:32:36.145Z,0
2019-02-15T01:33:46.073Z,0
2019-02-15T01:34:56.095Z,0
2019-02-15T01:36:06.016Z,0
2019-02-15T01:37:15.941Z,0
2019-02-15T01:38:25.869Z,0
2019-02-15T01:39:35.790Z,0
2019-02-15T01:40:45.767Z,0
2019-02-15T01:41:55.700Z,0
2019-02-15T01:43:05.618Z,0
2019-02-15T01:44:15.551Z,0
2019-02-15T01:45:25.492Z,0
2019-02-15T01:46:35.511Z,0
2019-02-15T01:47:47.386Z,0
2019-02-15T01:48:57.311Z,0
2019-02-15T01:50:07.252Z,0
2019-02-15T01:51:17.185Z,0
2019-02-15T01:52:27.136Z,0
2019-02-15T01:53:37.053Z,0
2019-02-15T01:54:46.771Z,0
2019-02-15T01:55:56.711Z,0
2019-02-15T01:57:06.632Z,0
2019-02-15T01:58:16.606Z,0
2019-02-15T01:59:26.543Z,0
2019-02-15T02:00:36.565Z,0
2019-02-15T02:01:46.507Z,0
2019-02-15T02:02:56.445Z,0
2019-02-15T02:04:06.381Z,0
2019-02-15T02:05:16.336Z,0
2019-02-15T02:06:26.283Z,0
2019-02-15T02:07:36.206Z,0
2019-02-15T02:08:46.127Z,0
2019-02-15T02:09:56.163Z,0
2019-02-15T02:11:06.100Z,0
2019-02-15T02:12:16.028Z,0
2019-02-15T02:13:25.956Z,0
2019-02-15T02:14:35.891Z,0
2019-02-15T02:15:45.913Z,0
2019-02-15T02:16:55.836Z,0
2019-02-15T02:18:05.753Z,0
2019-02-15T02:19:15.684Z,0
2019-02-15T02:20:25.636Z,0
2019-02-15T02:21:35.663Z,0
2019-02-15T02:22:45.590Z,0
2019-02-15T02:23:55.517Z,0
2019-02-15T02:25:05.474Z,0
2019-02-15T02:26:15.414Z,0
2019-02-15T02:27:25.345Z,0
2019-02-15T02:28:35.090Z,0
2019-02-15T02:29:45.017Z,0
2019-02-15T02:30:54.945Z,0
2019-02-15T02:32:04.914Z,0
2019-02-15T02:33:14.950Z,0
2019-02-15T02:34:24.906Z,0
2019-02-15T02:35:34.839Z,0
2019-02-15T02:36:44.772Z,0
2019-02-15T02:37:54.711Z,0
2019-02-15T02:39:04.760Z,0
2019-02-15T02:40:14.692Z,0
2019-02-15T02:41:24.627Z,0
2019-02-15T02:42:34.573Z,0
2019-02-15T02:43:44.527Z,0
2019-02-15T02:44:54.457Z,0
2019-02-15T02:46:04.384Z,0
2019-02-15T02:47:14.307Z,0
2019-02-15T02:48:24.274Z,0
2019-02-15T02:49:34.217Z,0
2019-02-15T02:50:44.276Z,0
2019-02-15T02:51:54.220Z,0
2019-02-15T02:53:04.160Z,0
2019-02-15T02:54:14.121Z,0
2019-02-15T02:55:24.051Z,0
2019-02-15T02:56:33.986Z,0
2019-02-15T02:57:43.924Z,0
2019-02-15T02:58:53.843Z,0
2019-02-15T03:00:03.529Z,0
2019-02-15T03:01:13.470Z,0
2019-02-15T03:02:23.461Z,0
2019-02-15T03:03:33.420Z,0
2019-02-15T03:04:43.419Z,0
2019-02-15T03:05:53.346Z,0
2019-02-15T03:07:03.280Z,0
2019-02-15T03:08:13.255Z,0
2019-02-15T03:09:23.176Z,0
2019-02-15T03:10:33.237Z,0
2019-02-15T03:11:43.188Z,0
2019-02-15T03:12:53.145Z,0
2019-02-15T03:14:13.942Z,0
2019-02-15T03:15:23.876Z,0
2019-02-15T03:16:33.830Z,0
2019-02-15T03:17:43.758Z,0
2019-02-15T03:18:53.737Z,0
2019-02-15T03:20:03.767Z,0
2019-02-15T03:21:13.717Z,0
2019-02-15T03:22:23.676Z,0
2019-02-15T03:23:33.602Z,0
2019-02-15T03:24:43.530Z,0
2019-02-15T03:25:53.510Z,0
2019-02-15T03:27:03.476Z,0
2019-02-15T03:28:13.421Z,0
2019-02-15T03:29:23.371Z,0
2019-02-15T03:30:33.371Z,0
2019-02-15T03:31:43.472Z,0
2019-02-15T03:32:53.469Z,0
2019-02-15T03:34:03.338Z,0
2019-02-15T03:35:13.321Z,0
2019-02-15T03:36:23.256Z,0
2019-02-15T03:37:33.095Z,0
2019-02-15T03:38:43.055Z,0
2019-02-15T03:39:52.992Z,0
2019-02-15T03:41:02.939Z,0
2019-02-15T03:42:12.885Z,0
2019-02-15T03:43:22.664Z,0
2019-02-15T03:44:32.589Z,0
2019-02-15T03:45:42.553Z,0
2019-02-15T03:46:52.505Z,0
2019-02-15T03:48:02.426Z,0
2019-02-15T03:49:12.367Z,0
2019-02-15T03:50:22.310Z,0
2019-02-15T03:51:32.316Z,0
2019-02-15T03:52:42.257Z,0
2019-02-15T03:53:52.186Z,0
2019-02-15T03:55:02.235Z,0
2019-02-15T03:56:12.203Z,0
2019-02-15T03:57:22.143Z,0
2019-02-15T03:58:32.120Z,0
2019-02-15T03:59:42.123Z,0
2019-02-15T04:00:52.164Z,0
2019-02-15T04:02:02.105Z,0
2019-02-15T04:03:12.087Z,0
2019-02-15T04:04:22.019Z,0
2019-02-15T04:05:31.954Z,0
2019-02-15T04:06:42.035Z,0
2019-02-15T04:07:51.980Z,0
2019-02-15T04:09:01.657Z,0
2019-02-15T04:10:11.592Z,0
2019-02-15T04:11:21.524Z,0
2019-02-15T04:12:32.214Z,0
2019-02-15T04:13:42.372Z,0
2019-02-15T04:14:52.315Z,0
2019-02-15T04:16:02.252Z,0
2019-02-15T04:17:12.194Z,0
2019-02-15T04:18:21.923Z,0
2019-02-15T04:19:31.861Z,0
2019-02-15T04:20:41.791Z,0
2019-02-15T04:21:51.744Z,0
2019-02-15T04:23:01.670Z,0
2019-02-15T04:24:13.435Z,0
2019-02-15T04:25:23.226Z,0
2019-02-15T04:26:33.182Z,0
2019-02-15T04:27:43.123Z,0
2019-02-15T04:28:53.148Z,0
2019-02-15T04:30:03.086Z,0
2019-02-15T04:31:13.051Z,0
2019-02-15T04:32:22.995Z,0
2019-02-15T04:33:32.934Z,0
2019-02-15T04:34:42.874Z,0
2019-02-15T04:35:52.837Z,0
2019-02-15T04:37:02.525Z,0
2019-02-15T04:38:12.461Z,0
2019-02-15T04:39:22.408Z,0
2019-02-15T04:40:32.388Z,0
2019-02-15T04:41:42.372Z,0
2019-02-15T04:42:52.302Z,0
2019-02-15T04:44:02.235Z,0
2019-02-15T04:45:12.191Z,0
2019-02-15T04:46:22.132Z,0
2019-02-15T04:47:32.074Z,0
2019-02-15T04:48:42.017Z,0
2019-02-15T04:49:51.972Z,0
2019-02-15T04:51:01.928Z,0
2019-02-15T04:52:11.873Z,0
2019-02-15T04:53:21.801Z,0
2019-02-15T04:54:31.729Z,0
2019-02-15T04:55:41.689Z,0
2019-02-15T04:56:51.619Z,0
2019-02-15T04:58:01.571Z,0
2019-02-15T04:59:11.556Z,0
2019-02-15T05:00:21.502Z,0
2019-02-15T05:01:31.463Z,0
2019-02-15T05:02:41.411Z,0
2019-02-15T05:03:51.336Z,0
2019-02-15T05:05:01.370Z,0
2019-02-15T05:06:11.322Z,0
2019-02-15T05:07:21.245Z,0
2019-02-15T05:08:31.173Z,0
2019-02-15T05:09:41.105Z,0
2019-02-15T05:10:51.171Z,0
2019-02-15T05:12:01.100Z,0
2019-02-15T05:13:11.051Z,0
2019-02-15T05:14:20.977Z,0
2019-02-15T05:15:30.901Z,0
2019-02-15T05:16:40.854Z,0
2019-02-15T05:17:50.813Z,0
2019-02-15T05:19:00.742Z,0
2019-02-15T05:20:10.679Z,0
2019-02-15T05:21:22.468Z,0
2019-02-15T05:22:32.521Z,0
2019-02-15T05:23:42.239Z,0
2019-02-15T05:24:52.175Z,0
2019-02-15T05:26:02.137Z,0
2019-02-15T05:27:12.083Z,0
2019-02-15T05:28:22.152Z,0
2019-02-15T05:29:32.141Z,0
2019-02-15T05:30:42.087Z,0
2019-02-15T05:31:51.783Z,0
2019-02-15T05:33:01.732Z,0
2019-02-15T05:34:11.799Z,0
2019-02-15T05:35:21.754Z,0
2019-02-15T05:36:31.690Z,0
2019-02-15T05:37:41.631Z,0
2019-02-15T05:38:51.565Z,0
2019-02-15T05:40:01.610Z,0
2019-02-15T05:41:11.535Z,0
2019-02-15T05:42:21.463Z,0
2019-02-15T05:43:31.437Z,0
2019-02-15T05:44:41.378Z,0
2019-02-15T05:45:51.417Z,0
2019-02-15T05:47:01.344Z,0
2019-02-15T05:48:11.277Z,0
2019-02-15T05:49:21.205Z,0
2019-02-15T05:50:31.126Z,0
2019-02-15T05:51:41.153Z,0
2019-02-15T05:52:50.851Z,0
2019-02-15T05:54:00.784Z,0
2019-02-15T05:55:10.761Z,0
2019-02-15T05:56:20.685Z,0
2019-02-15T05:57:30.711Z,0
2019-02-15T05:58:40.660Z,0
2019-02-15T05:59:50.595Z,0
2019-02-15T06:01:00.529Z,0
2019-02-15T06:02:10.493Z,0
2019-02-15T06:03:21.083Z,0
2019-02-15T06:04:31.020Z,0
2019-02-15T06:05:40.941Z,0
2019-02-15T06:06:50.872Z,0
2019-02-15T06:08:00.804Z,0
2019-02-15T06:09:10.733Z,0
2019-02-15T06:10:20.677Z,0
2019-02-15T06:11:30.619Z,0
2019-02-15T06:12:40.545Z,0
2019-02-15T06:13:50.477Z,0
2019-02-15T06:15:00.658Z,0
2019-02-15T06:16:10.675Z,0
2019-02-15T06:17:20.606Z,0
2019-02-15T06:18:30.549Z,0
2019-02-15T06:19:40.511Z,0
2019-02-15T06:20:50.491Z,0
2019-02-15T06:22:00.441Z,0
2019-02-15T06:23:10.394Z,0
2019-02-15T06:24:20.324Z,0
2019-02-15T06:25:30.328Z,0
2019-02-15T06:26:40.372Z,0
2019-02-15T06:27:50.498Z,0
2019-02-15T06:29:00.439Z,0
2019-02-15T06:30:10.377Z,0
2019-02-15T06:31:20.361Z,0
2019-02-15T06:32:30.290Z,0
2019-02-15T06:33:39.970Z,0
2019-02-15T06:34:49.937Z,0
2019-02-15T06:35:59.905Z,0
2019-02-15T06:37:09.835Z,0
2019-02-15T06:38:19.766Z,0
2019-02-15T06:39:29.726Z,0
2019-02-15T06:40:39.660Z,0
2019-02-15T06:41:49.593Z,0
2019-02-15T06:42:59.534Z,0
2019-02-15T06:44:09.503Z,0
2019-02-15T06:45:28.972Z,0
2019-02-15T06:46:38.904Z,0
2019-02-15T06:47:48.836Z,0
2019-02-15T06:48:58.795Z,0
2019-02-15T06:50:08.874Z,0
2019-02-15T06:51:18.808Z,0
2019-02-15T06:52:28.768Z,0
2019-02-15T06:53:38.711Z,0
2019-02-15T06:54:48.650Z,0
2019-02-15T06:55:58.674Z,5
2019-02-15T06:57:08.599Z,5
2019-02-15T06:58:18.522Z,5
2019-02-15T06:59:28.442Z,5
2019-02-15T07:00:38.379Z,5
2019-02-15T07:01:48.357Z,5
2019-02-15T07:02:58.061Z,5
2019-02-15T07:04:07.989Z,5
2019-02-15T07:05:17.915Z,5
2019-02-15T07:06:27.836Z,5
2019-02-15T07:07:37.757Z,5
2019-02-15T07:08:47.684Z,10
2019-02-15T07:09:57.621Z,10
2019-02-15T07:11:07.634Z,10
2019-02-15T07:12:17.554Z,10
2019-02-15T07:13:27.592Z,10
2019-02-15T07:14:37.526Z,10
2019-02-15T07:15:47.456Z,15
2019-02-15T07:16:57.380Z,15
2019-02-15T07:18:07.305Z,15
2019-02-15T07:19:17.333Z,15
2019-02-15T07:20:27.272Z,20
2019-02-15T07:21:36.966Z,20
2019-02-15T07:22:46.887Z,20
2019-02-15T07:23:56.812Z,25
2019-02-15T07:25:06.861Z,25
2019-02-15T07:26:16.783Z,25
2019-02-15T07:27:26.713Z,25
2019-02-15T07:28:36.645Z,30
2019-02-15T07:29:46.586Z,30
2019-02-15T07:30:56.561Z,30
2019-02-15T07:32:06.492Z,30
2019-02-15T07:33:16.428Z,35
2019-02-15T07:34:26.359Z,35
2019-02-15T07:35:36.287Z,40
2019-02-15T07:36:47.762Z,40
2019-02-15T07:37:57.873Z,40
2019-02-15T07:39:07.796Z,40
2019-02-15T07:40:17.725Z,45
2019-02-15T07:41:27.679Z,45
2019-02-15T07:42:37.667Z,45
2019-02-15T07:43:47.601Z,45
2019-02-15T07:44:57.527Z,45
2019-02-15T07:46:07.468Z,45
2019-02-15T07:47:17.396Z,45
2019-02-15T07:48:27.418Z,45
2019-02-15T07:49:37.341Z,45
2019-02-15T07:50:47.261Z,45
2019-02-15T07:51:57.200Z,45
2019-02-15T07:53:08.962Z,50
2019-02-15T07:54:19.113Z,50
2019-02-15T07:55:29.054Z,50
2019-02-15T07:56:38.972Z,50
2019-02-15T07:57:48.647Z,50
2019-02-15T07:58:58.567Z,50
2019-02-15T08:00:10.260Z,50
2019-02-15T08:01:20.195Z,50
2019-02-15T08:02:30.139Z,50
2019-02-15T08:03:40.252Z,50
2019-02-15T08:04:50.405Z,50
2019-02-15T08:06:00.435Z,55
2019-02-15T08:07:10.374Z,55
2019-02-15T08:08:20.310Z,55
2019-02-15T08:09:30.245Z,60
2019-02-15T08:10:41.986Z,65
2019-02-15T08:11:52.159Z,65
2019-02-15T08:13:02.096Z,70
2019-02-15T08:14:20.153Z,75
2019-02-15T08:15:38.564Z,75
2019-02-15T08:16:48.598Z,75
2019-02-15T08:17:58.525Z,75
2019-02-15T08:19:08.448Z,75
2019-02-15T08:20:18.387Z,80
2019-02-15T08:21:28.314Z,80
2019-02-15T08:22:38.348Z,85
2019-02-15T08:23:48.314Z,85
2019-02-15T08:24:58.239Z,90
2019-02-15T08:26:08.171Z,90
2019-02-15T08:27:18.103Z,95
2019-02-15T08:28:28.128Z,95
2019-02-15T08:29:38.054Z,100
2019-02-15T08:30:48.054Z,100
2019-02-15T08:31:58.008Z,105
2019-02-15T08:33:07.939Z,105
2019-02-15T08:34:17.912Z,105
2019-02-15T08:35:27.591Z,105
2019-02-15T08:36:37.577Z,110
2019-02-15T08:37:47.286Z,110
2019-02-15T08:38:57.210Z,110
2019-02-15T08:40:07.474Z,110
2019-02-15T08:41:17.398Z,115
2019-02-15T08:42:27.321Z,115
2019-02-15T08:43:39.427Z,115
2019-02-15T08:44:49.360Z,115
2019-02-15T08:46:08.000Z,115
2019-02-15T08:47:17.979Z,115
2019-02-15T08:48:27.904Z,120
2019-02-15T08:49:37.830Z,120
2019-02-15T08:50:47.756Z,120
2019-02-15T08:51:57.785Z,125
2019-02-15T08:53:07.744Z,130
2019-02-15T08:54:17.669Z,135
2019-02-15T08:55:27.609Z,135
2019-02-15T08:56:37.540Z,140
2019-02-15T08:57:47.314Z,145
2019-02-15T08:58:57.287Z,145
2019-02-15T09:00:07.451Z,145
2019-02-15T09:01:17.378Z,145
2019-02-15T09:02:27.302Z,150
2019-02-15T09:03:37.227Z,150
2019-02-15T09:04:47.160Z,155
2019-02-15T09:05:57.087Z,155
2019-02-15T09:07:07.023Z,160
2019-02-15T09:08:16.955Z,165
2019-02-15T09:09:26.976Z,165
2019-02-15T09:10:36.904Z,170
2019-02-15T09:11:46.960Z,175
2019-02-15T09:12:56.913Z,180
2019-02-15T09:14:06.847Z,180
2019-02-15T09:15:16.823Z,185
2019-02-15T09:16:26.750Z,190
2019-02-15T09:17:36.963Z,190
2019-02-15T09:18:46.892Z,195
2019-02-15T09:19:56.849Z,195
2019-02-15T09:21:06.896Z,200
2019-02-15T09:22:16.820Z,200
2019-02-15T09:23:26.748Z,205
2019-02-15T09:24:36.700Z,210
2019-02-15T09:25:46.622Z,215
2019-02-15T09:26:56.561Z,215
2019-02-15T09:28:06.494Z,220
2019-02-15T09:29:16.413Z,220
2019-02-15T09:30:26.342Z,225
2019-02-15T09:31:36.271Z,230
2019-02-15T09:32:46.251Z,230
2019-02-15T09:33:56.188Z,230
2019-02-15T09:35:06.121Z,230
2019-02-15T09:36:16.048Z,230
2019-02-15T09:37:25.980Z,230
2019-02-15T09:38:35.963Z,230
2019-02-15T09:39:46.792Z,230
2019-02-15T09:40:56.730Z,230
2019-02-15T09:42:06.660Z,230
2019-02-15T09:43:16.594Z,230
2019-02-15T09:44:26.371Z,230
2019-02-15T09:45:37.814Z,225
2019-02-15T09:46:47.744Z,225
2019-02-15T09:47:57.675Z,225
2019-02-15T09:49:07.608Z,225
2019-02-15T09:50:19.740Z,225
2019-02-15T09:51:29.662Z,230
2019-02-15T09:52:39.586Z,235
2019-02-15T09:53:49.577Z,235
2019-02-15T09:54:59.502Z,235
2019-02-15T09:56:09.528Z,240
2019-02-15T09:57:19.467Z,240
2019-02-15T09:58:29.398Z,240
2019-02-15T09:59:39.328Z,240
2019-02-15T10:00:49.255Z,245
2019-02-15T10:01:59.187Z,245
2019-02-15T10:03:09.129Z,245
2019-02-15T10:04:19.058Z,245
2019-02-15T10:05:28.979Z,250
2019-02-15T10:06:38.906Z,250
2019-02-15T10:07:48.934Z,250
2019-02-15T10:08:58.873Z,245
2019-02-15T10:10:08.841Z,250
2019-02-15T10:11:18.780Z,250
2019-02-15T10:12:28.713Z,250
2019-02-15T10:13:38.694Z,250
2019-02-15T10:14:48.655Z,255
2019-02-15T10:15:58.580Z,255
2019-02-15T10:17:08.530Z,255
2019-02-15T10:18:18.457Z,255
2019-02-15T10:19:32.183Z,255
2019-02-15T10:20:42.111Z,255
2019-02-15T10:21:52.034Z,255
2019-02-15T10:23:01.960Z,255
2019-02-15T10:24:11.913Z,265
2019-02-15T10:25:21.891Z,260
2019-02-15T10:26:31.822Z,265
2019-02-15T10:27:41.758Z,270
2019-02-15T10:28:51.688Z,270
2019-02-15T10:30:02.520Z,275
2019-02-15T10:31:12.746Z,275
2019-02-15T10:32:22.681Z,275
2019-02-15T10:33:32.609Z,280
2019-02-15T10:34:42.547Z,280
2019-02-15T10:35:52.472Z,285
2019-02-15T10:37:02.523Z,285
2019-02-15T10:38:12.450Z,290
2019-02-15T10:39:22.379Z,290
2019-02-15T10:40:32.312Z,290
2019-02-15T10:41:42.248Z,295
2019-02-15T10:42:52.230Z,295
2019-02-15T10:44:02.217Z,300
2019-02-15T10:45:12.156Z,300
2019-02-15T10:46:22.132Z,305
2019-02-15T10:47:34.777Z,305
2019-02-15T10:48:44.754Z,305
2019-02-15T10:49:54.680Z,310
2019-02-15T10:51:04.615Z,310
2019-02-15T10:52:14.541Z,310
2019-02-15T10:53:24.519Z,315
2019-02-15T10:54:34.551Z,315
2019-02-15T10:55:45.372Z,315
2019-02-15T10:56:55.305Z,310
2019-02-15T10:58:05.232Z,310
2019-02-15T10:59:16.040Z,305
2019-02-15T11:00:25.966Z,305
2019-02-15T11:01:35.890Z,305
2019-02-15T11:02:45.824Z,300
2019-02-15T11:03:55.765Z,305
2019-02-15T11:05:05.718Z,300
2019-02-15T11:06:15.749Z,300
2019-02-15T11:07:25.682Z,300
2019-02-15T11:08:35.608Z,300
2019-02-15T11:09:45.541Z,305
2019-02-15T11:10:55.468Z,305
2019-02-15T11:12:05.440Z,305
2019-02-15T11:13:15.382Z,310
2019-02-15T11:14:25.314Z,310
2019-02-15T11:15:35.256Z,310
2019-02-15T11:16:54.145Z,310
2019-02-15T11:18:04.189Z,310
2019-02-15T11:19:14.134Z,310
2019-02-15T11:20:24.065Z,305
2019-02-15T11:21:34.008Z,305
2019-02-15T11:22:43.947Z,305
2019-02-15T11:23:53.715Z,300
2019-02-15T11:25:03.691Z,300
2019-02-15T11:26:14.171Z,300
2019-02-15T11:27:24.120Z,295
2019-02-15T11:28:34.047Z,295
2019-02-15T11:29:44.070Z,295
2019-02-15T11:30:53.997Z,290
2019-02-15T11:32:03.930Z,295
2019-02-15T11:33:13.861Z,295
2019-02-15T11:34:23.784Z,295
2019-02-15T11:35:33.810Z,295
2019-02-15T11:36:43.743Z,300
2019-02-15T11:37:53.677Z,300
2019-02-15T11:39:03.606Z,300
2019-02-15T11:40:13.541Z,300
2019-02-15T11:41:23.567Z,305
2019-02-15T11:42:33.493Z,305
2019-02-15T11:43:43.432Z,305
2019-02-15T11:44:53.362Z,305
2019-02-15T11:46:03.285Z,305
2019-02-15T11:47:13.318Z,305
2019-02-15T11:48:23.254Z,305
2019-02-15T11:49:33.207Z,310
2019-02-15T11:50:43.148Z,310
2019-02-15T11:51:53.081Z,315
2019-02-15T11:53:03.065Z,315
2019-02-15T11:54:13.021Z,320
2019-02-15T11:55:22.957Z,315
2019-02-15T11:56:32.884Z,310
2019-02-15T11:57:42.821Z,310
2019-02-15T11:58:52.994Z,305
2019-02-15T12:00:02.923Z,300
2019-02-15T12:01:12.857Z,295
2019-02-15T12:02:22.810Z,290
2019-02-15T12:03:32.750Z,290
2019-02-15T12:04:42.677Z,290
2019-02-15T12:05:52.841Z,285
2019-02-15T12:07:02.772Z,285
2019-02-15T12:08:12.712Z,290
2019-02-15T12:09:22.647Z,290
2019-02-15T12:10:32.380Z,290
2019-02-15T12:11:42.319Z,290
2019-02-15T12:12:52.261Z,290
2019-02-15T12:14:02.197Z,295
2019-02-15T12:15:12.138Z,295
2019-02-15T12:16:22.167Z,295
2019-02-15T12:17:32.116Z,300
2019-02-15T12:18:42.044Z,300
2019-02-15T12:19:51.975Z,305
2019-02-15T12:21:01.911Z,305
2019-02-15T12:22:11.936Z,310
2019-02-15T12:23:21.863Z,310
2019-02-15T12:24:31.788Z,310
2019-02-15T12:25:41.473Z,310
2019-02-15T12:26:51.415Z,310
2019-02-15T12:28:01.341Z,305
2019-02-15T12:29:11.278Z,310
2019-02-15T12:30:21.272Z,300
2019-02-15T12:31:31.221Z,300
2019-02-15T12:32:41.151Z,295
2019-02-15T12:33:51.181Z,300
2019-02-15T12:35:01.112Z,295
2019-02-15T12:36:10.875Z,295
2019-02-15T12:37:20.810Z,295
2019-02-15T12:38:30.739Z,295
2019-02-15T12:39:40.776Z,295
2019-02-15T12:40:50.713Z,290
2019-02-15T12:42:00.639Z,290
2019-02-15T12:43:10.583Z,290
2019-02-15T12:44:20.539Z,290
2019-02-15T12:45:30.566Z,295
2019-02-15T12:46:40.246Z,295
2019-02-15T12:47:50.360Z,300
2019-02-15T12:49:00.289Z,300
2019-02-15T12:50:10.224Z,295
2019-02-15T12:51:20.198Z,290
2019-02-15T12:52:30.130Z,290
2019-02-15T12:53:40.054Z,290
2019-02-15T12:54:49.982Z,290
2019-02-15T12:55:59.918Z,295
2019-02-15T12:57:09.955Z,295
2019-02-15T12:58:19.881Z,305
2019-02-15T12:59:29.809Z,320
2019-02-15T13:00:40.470Z,315
2019-02-15T13:01:50.526Z,325
2019-02-15T13:03:00.571Z,330
2019-02-15T13:04:10.282Z,330
2019-02-15T13:05:20.229Z,335
2019-02-15T13:06:38.363Z,335
2019-02-15T13:07:48.306Z,340
2019-02-15T13:08:58.337Z,360
2019-02-15T13:10:08.292Z,365
2019-02-15T13:11:18.244Z,360
2019-02-15T13:12:28.179Z,330
2019-02-15T13:13:38.107Z,330
2019-02-15T13:14:48.142Z,320
2019-02-15T13:15:58.093Z,315
2019-02-15T13:17:08.020Z,305
2019-02-15T13:18:17.953Z,295
2019-02-15T13:19:27.905Z,295
2019-02-15T13:20:37.937Z,290
2019-02-15T13:21:48.008Z,290
2019-02-15T13:22:57.688Z,285
2019-02-15T13:24:07.650Z,280
2019-02-15T13:25:17.599Z,275
2019-02-15T13:26:28.134Z,275
2019-02-15T13:27:37.928Z,265
2019-02-15T13:28:48.079Z,265
2019-02-15T13:29:58.035Z,260
2019-02-15T13:31:07.983Z,255
2019-02-15T13:32:17.970Z,250
2019-02-15T13:33:27.893Z,250
2019-02-15T13:34:37.823Z,245
2019-02-15T13:35:47.747Z,240
2019-02-15T13:36:57.944Z,235
2019-02-15T13:38:07.975Z,230
2019-02-15T13:39:19.513Z,225
2019-02-15T13:40:29.488Z,220
2019-02-15T13:41:39.418Z,215
2019-02-15T13:42:49.343Z,210
2019-02-15T13:44:00.766Z,205
2019-02-15T13:45:10.718Z,200
2019-02-15T13:46:20.643Z,195
2019-02-15T13:47:39.458Z,190
2019-02-15T13:48:49.417Z,190
2019-02-15T13:49:59.452Z,185
2019-02-15T13:51:09.374Z,185
2019-02-15T13:52:19.330Z,180
2019-02-15T13:53:29.312Z,180
2019-02-15T13:54:41.017Z,185
2019-02-15T13:55:51.014Z,185
2019-02-15T13:57:00.943Z,185
2019-02-15T13:58:10.880Z,185
2019-02-15T13:59:20.805Z,185
2019-02-15T14:00:30.733Z,185
2019-02-15T14:01:40.710Z,185
2019-02-15T14:02:50.643Z,190
2019-02-15T14:04:00.575Z,190
2019-02-15T14:05:12.178Z,195
2019-02-15T14:06:22.115Z,195
2019-02-15T14:07:32.145Z,195
2019-02-15T14:08:42.072Z,195
2019-02-15T14:09:51.998Z,195
2019-02-15T14:11:01.918Z,195
2019-02-15T14:12:12.574Z,200
2019-02-15T14:13:22.598Z,210
2019-02-15T14:14:32.644Z,215
2019-02-15T14:15:42.564Z,220
2019-02-15T14:16:52.484Z,220
2019-02-15T14:18:02.421Z,225
2019-02-15T14:19:12.450Z,230
2019-02-15T14:20:22.181Z,235
2019-02-15T14:21:32.131Z,235
2019-02-15T14:22:42.116Z,235
2019-02-15T14:23:52.104Z,240
2019-02-15T14:25:02.077Z,250
2019-02-15T14:26:12.002Z,255
2019-02-15T14:27:21.928Z,265
2019-02-15T14:28:31.857Z,270
2019-02-15T14:29:41.777Z,275
2019-02-15T14:30:51.818Z,280
2019-02-15T14:32:01.739Z,285
2019-02-15T14:33:11.667Z,285
2019-02-15T14:34:21.597Z,285
2019-02-15T14:35:31.516Z,285
2019-02-15T14:36:41.552Z,280
2019-02-15T14:37:51.237Z,280
2019-02-15T14:39:01.164Z,270
2019-02-15T14:40:11.095Z,265
2019-02-15T14:41:20.795Z,255
2019-02-15T14:42:30.773Z,245
2019-02-15T14:43:40.697Z,240
2019-02-15T14:44:50.393Z,235
2019-02-15T14:46:00.314Z,235
2019-02-15T14:47:10.237Z,230
2019-02-15T14:48:22.501Z,225
2019-02-15T14:49:32.421Z,220
2019-02-15T14:50:42.346Z,215
2019-02-15T14:51:52.283Z,210
2019-02-15T14:53:02.207Z,205
2019-02-15T14:54:12.737Z,200
2019-02-15T14:55:22.689Z,195
2019-02-15T14:56:32.634Z,195
2019-02-15T14:57:42.594Z,195
2019-02-15T14:58:52.545Z,190
2019-02-15T15:00:02.877Z,190
2019-02-15T15:01:12.822Z,185
2019-02-15T15:02:22.764Z,185
2019-02-15T15:03:32.691Z,180
2019-02-15T15:04:43.922Z,185
2019-02-15T15:05:54.996Z,175
2019-02-15T15:07:05.121Z,170
2019-02-15T15:08:15.042Z,165
2019-02-15T15:09:24.965Z,165
2019-02-15T15:10:34.892Z,160
2019-02-15T15:11:44.915Z,155
2019-02-15T15:12:54.594Z,150
2019-02-15T15:14:04.541Z,145
2019-02-15T15:15:16.438Z,140
2019-02-15T15:16:26.364Z,135
2019-02-15T15:17:36.335Z,135
2019-02-15T15:18:46.267Z,130
2019-02-15T15:19:56.213Z,125
2019-02-15T15:21:06.161Z,120
2019-02-15T15:22:16.106Z,115
2019-02-15T15:23:26.139Z,115
2019-02-15T15:24:38.034Z,110
2019-02-15T15:25:47.958Z,110
2019-02-15T15:26:57.905Z,105
2019-02-15T15:28:07.828Z,100
2019-02-15T15:29:17.799Z,95
2019-02-15T15:30:27.744Z,90
2019-02-15T15:31:37.672Z,90
2019-02-15T15:32:47.599Z,85
2019-02-15T15:33:57.610Z,85
2019-02-15T15:35:07.629Z,85
2019-02-15T15:36:18.323Z,85
2019-02-15T15:37:28.464Z,80
2019-02-15T15:38:38.433Z,80
2019-02-15T15:39:48.359Z,75
2019-02-15T15:40:58.393Z,75
2019-02-15T15:42:08.471Z,70
2019-02-15T15:43:18.393Z,65
2019-02-15T15:44:28.330Z,65
2019-02-15T15:45:38.253Z,60
2019-02-15T15:46:48.229Z,60
2019-02-15T15:47:58.155Z,55
2019-02-15T15:49:08.122Z,50
2019-02-15T15:50:18.075Z,50
2019-02-15T15:51:28.027Z,45
2019-02-15T15:52:38.050Z,45
2019-02-15T15:53:48.072Z,40
2019-02-15T15:54:58.056Z,40
2019-02-15T15:56:07.741Z,40
2019-02-15T15:57:17.670Z,35
2019-02-15T15:58:27.654Z,35
2019-02-15T15:59:37.587Z,30
2019-02-15T16:00:48.967Z,30
2019-02-15T16:01:58.891Z,25
2019-02-15T16:03:08.815Z,25
2019-02-15T16:04:18.843Z,25
2019-02-15T16:05:28.775Z,20
2019-02-15T16:06:38.702Z,20
2019-02-15T16:07:50.898Z,20
2019-02-15T16:09:00.819Z,20
2019-02-15T16:10:10.846Z,20
2019-02-15T16:11:20.766Z,15
2019-02-15T16:12:30.686Z,15
2019-02-15T16:13:55.266Z,15
2019-02-15T16:15:05.247Z,15
2019-02-15T16:16:15.173Z,10
2019-02-15T16:17:25.105Z,10
2019-02-15T16:18:42.461Z,10
2019-02-15T16:19:59.079Z,10
2019-02-15T16:21:09.103Z,10
2019-02-15T16:22:19.030Z,5
2019-02-15T16:23:28.951Z,5
2019-02-15T16:24:38.875Z,5
2019-02-15T16:25:48.848Z,5
2019-02-15T16:26:58.811Z,5
2019-02-15T16:28:08.731Z,0
2019-02-15T16:29:21.164Z,0
2019-02-15T16:30:31.094Z,0
2019-02-15T16:31:41.042Z,0
2019-02-15T16:32:51.023Z,0
2019-02-15T16:34:00.955Z,0
2019-02-15T16:35:10.625Z,0
2019-02-15T16:36:20.572Z,0
2019-02-15T16:37:30.506Z,0
2019-02-15T16:38:40.474Z,0
2019-02-15T16:39:50.596Z,0
2019-02-15T16:41:00.519Z,0